Time,TemperatureF,DewpointF,PressureIn,WindDirection,WindDirectionDegrees,WindSpeedMPH,WindSpeedGustMPH,Humidity,HourlyPrecipIn,Conditions,Clouds,dailyrainin,SoftwareType,DateUTC
2013-07-08 00:02:00,74.0,70.0,30.04,South,186,0.0,3.0,87,0.00,,,0.00,,2013-07-08 04:02:00,
2013-07-08 00:12:00,73.0,69.0,30.04,SSE,159,0.0,2.0,88,0.00,,,0.00,,2013-07-08 04:12:00,
2013-07-08 00:22:00,73.0,69.0,30.04,SSE,159,0.0,2.0,88,0.00,,,0.00,,2013-07-08 04:22:00,
2013-07-08 00:33:00,73.0,70.0,30.05,SSE,161,0.0,3.0,89,0.00,,,0.00,,2013-07-08 04:33:00,
2013-07-08 00:42:00,73.0,70.0,30.05,SSE,163,0.0,1.0,89,0.00,,,0.00,,2013-07-08 04:42:00,
2013-07-08 00:53:00,73.0,70.0,30.05,SSE,163,0.0,1.0,90,0.00,,,0.00,,2013-07-08 04:53:00,
2013-07-08 01:01:00,72.0,69.0,30.05,SSE,163,0.0,1.0,90,0.00,,,0.00,,2013-07-08 05:01:00,
2013-07-08 01:12:00,72.0,69.0,30.05,SSE,163,0.0,1.0,90,0.00,,,0.00,,2013-07-08 05:12:00,
2013-07-08 01:22:00,72.0,69.0,30.05,SSE,163,0.0,1.0,90,0.00,,,0.00,,2013-07-08 05:22:00,
2013-07-08 01:33:00,72.0,69.0,30.05,SSE,163,0.0,1.0,90,0.00,,,0.00,,2013-07-08 05:33:00,
2013-07-08 01:43:00,72.0,69.0,30.05,SSE,163,0.0,1.0,90,0.00,,,0.00,,2013-07-08 05:43:00,
2013-07-08 01:53:00,72.0,69.0,30.05,SSE,163,0.0,1.0,90,0.00,,,0.00,,2013-07-08 05:53:00,
2013-07-08 02:01:00,72.0,69.0,30.05,SSE,163,0.0,2.0,91,0.00,,,0.00,,2013-07-08 06:01:00,
2013-07-08 02:12:00,72.0,69.0,30.05,SSE,164,0.0,2.0,91,0.00,,,0.00,,2013-07-08 06:12:00,
2013-07-08 02:22:00,72.0,69.0,30.05,SSE,164,0.0,1.0,91,0.00,,,0.00,,2013-07-08 06:22:00,
2013-07-08 02:33:00,72.0,69.0,30.05,SSE,164,0.0,2.0,91,0.00,,,0.00,,2013-07-08 06:33:00,
2013-07-08 02:43:00,72.0,69.0,30.05,SSE,164,0.0,2.0,91,0.00,,,0.00,,2013-07-08 06:43:00,
2013-07-08 02:53:00,72.0,69.0,30.05,SSE,164,0.0,2.0,91,0.00,,,0.00,,2013-07-08 06:53:00,
2013-07-08 03:02:00,72.0,69.0,30.05,SSE,164,0.0,2.0,91,0.00,,,0.00,,2013-07-08 07:02:00,
2013-07-08 03:12:00,72.0,69.0,30.05,SSE,164,0.0,2.0,91,0.00,,,0.00,,2013-07-08 07:12:00,
2013-07-08 03:22:00,72.0,69.0,30.05,SSE,164,0.0,2.0,91,0.00,,,0.00,,2013-07-08 07:22:00,
2013-07-08 03:34:00,71.0,68.0,30.05,SSE,164,0.0,2.0,91,0.00,,,0.00,,2013-07-08 07:34:00,
2013-07-08 03:44:00,71.0,68.0,30.05,SSE,165,0.0,2.0,91,0.00,,,0.00,,2013-07-08 07:44:00,
2013-07-08 03:53:00,71.0,68.0,30.04,SSE,165,0.0,2.0,91,0.00,,,0.00,,2013-07-08 07:53:00,
2013-07-08 04:02:00,71.0,68.0,30.04,SW,217,0.0,3.0,90,0.00,,,0.00,,2013-07-08 08:02:00,
2013-07-08 04:12:00,71.0,68.0,30.04,SW,217,0.0,2.0,91,0.00,,,0.00,,2013-07-08 08:12:00,
2013-07-08 04:22:00,71.0,68.0,30.04,SW,217,0.0,1.0,91,0.00,,,0.00,,2013-07-08 08:22:00,
2013-07-08 04:33:00,71.0,68.0,30.04,SW,217,0.0,2.0,91,0.00,,,0.00,,2013-07-08 08:33:00,
2013-07-08 04:42:00,71.0,68.0,30.04,SW,217,0.0,2.0,91,0.00,,,0.00,,2013-07-08 08:42:00,
2013-07-08 04:53:00,71.0,68.0,30.04,SW,217,0.0,2.0,91,0.00,,,0.00,,2013-07-08 08:53:00,
2013-07-08 05:02:00,71.0,68.0,30.04,SSW,204,0.0,3.0,91,0.00,,,0.00,,2013-07-08 09:02:00,
2013-07-08 05:11:00,71.0,68.0,30.04,SSW,202,0.0,2.0,91,0.00,,,0.00,,2013-07-08 09:11:00,
2013-07-08 05:22:00,71.0,68.0,30.04,SSW,202,0.0,2.0,91,0.00,,,0.00,,2013-07-08 09:22:00,
2013-07-08 05:34:00,71.0,68.0,30.05,SSW,202,0.0,2.0,91,0.00,,,0.00,,2013-07-08 09:34:00,
2013-07-08 05:43:00,70.0,68.0,30.04,SSW,202,0.0,2.0,92,0.00,,,0.00,,2013-07-08 09:43:00,
2013-07-08 05:52:00,70.0,68.0,30.05,SSW,202,0.0,2.0,92,0.00,,,0.00,,2013-07-08 09:52:00,
2013-07-08 06:02:00,70.0,68.0,30.04,SSW,202,0.0,1.0,92,0.00,,,0.00,,2013-07-08 10:02:00,
2013-07-08 06:11:00,70.0,68.0,30.04,SSW,201,0.0,1.0,93,0.00,,,0.00,,2013-07-08 10:11:00,
2013-07-08 06:22:00,70.0,68.0,30.04,SSW,202,0.0,1.0,93,0.00,,,0.00,,2013-07-08 10:22:00,
2013-07-08 06:34:00,70.0,68.0,30.04,SSW,202,0.0,1.0,93,0.00,,,0.00,,2013-07-08 10:34:00,
2013-07-08 06:53:00,69.0,67.0,30.04,SSW,202,0.0,2.0,94,0.00,,,0.00,,2013-07-08 10:53:00,
2013-07-08 07:02:00,69.0,67.0,30.05,SSW,202,0.0,1.0,94,0.00,,,0.00,,2013-07-08 11:02:00,
2013-07-08 07:11:00,69.0,68.0,30.05,SSW,202,0.0,1.0,95,0.00,,,0.00,,2013-07-08 11:11:00,
2013-07-08 07:23:00,69.0,67.0,30.05,SSW,202,0.0,1.0,94,0.00,,,0.00,,2013-07-08 11:23:00,
2013-07-08 07:33:00,70.0,68.0,30.06,SSW,202,0.0,1.0,94,0.00,,,0.00,,2013-07-08 11:33:00,
2013-07-08 07:43:00,70.0,68.0,30.06,SSW,202,0.0,1.0,94,0.00,,,0.00,,2013-07-08 11:43:00,
2013-07-08 07:53:00,70.0,68.0,30.07,SSW,202,0.0,1.0,94,0.00,,,0.00,,2013-07-08 11:53:00,
2013-07-08 08:01:00,70.0,68.0,30.07,SSW,202,0.0,2.0,94,0.00,,,0.00,,2013-07-08 12:01:00,
2013-07-08 08:11:00,71.0,69.0,30.07,SSW,202,0.0,1.0,94,0.00,,,0.00,,2013-07-08 12:11:00,
2013-07-08 08:22:00,71.0,69.0,30.07,SSW,202,0.0,2.0,93,0.00,,,0.00,,2013-07-08 12:22:00,
2013-07-08 08:34:00,72.0,70.0,30.07,SSW,202,0.0,2.0,93,0.00,,,0.00,,2013-07-08 12:34:00,
2013-07-08 08:43:00,72.0,70.0,30.07,SSW,202,0.0,3.0,92,0.00,,,0.00,,2013-07-08 12:43:00,
2013-07-08 08:53:00,72.0,70.0,30.07,SSW,202,0.0,2.0,92,0.00,,,0.00,,2013-07-08 12:53:00,
2013-07-08 09:02:00,73.0,70.0,30.08,SSW,202,0.0,3.0,91,0.00,,,0.00,,2013-07-08 13:02:00,
2013-07-08 09:11:00,74.0,71.0,30.08,SSW,202,0.0,2.0,91,0.00,,,0.00,,2013-07-08 13:11:00,
2013-07-08 09:22:00,74.0,71.0,30.08,SSW,211,0.0,3.0,89,0.00,,,0.00,,2013-07-08 13:22:00,
2013-07-08 09:53:00,75.0,72.0,30.08,SW,223,0.0,2.0,89,0.00,,,0.00,,2013-07-08 13:53:00,
2013-07-08 10:02:00,76.0,72.0,30.08,SW,224,0.0,2.0,88,0.00,,,0.00,,2013-07-08 14:02:00,
2013-07-08 10:22:00,78.0,73.0,30.07,SSW,209,0.0,3.0,86,0.00,,,0.00,,2013-07-08 14:22:00,
2013-07-08 10:43:00,78.0,73.0,30.08,SSW,199,0.0,4.0,85,0.00,,,0.00,,2013-07-08 14:43:00,
2013-07-08 10:53:00,79.0,74.0,30.08,SSW,211,0.0,3.0,85,0.00,,,0.00,,2013-07-08 14:53:00,
2013-07-08 11:43:00,81.0,73.0,30.09,SW,220,1.0,6.0,78,0.00,,,0.00,,2013-07-08 15:43:00,
2013-07-08 11:53:00,81.0,74.0,30.09,SW,226,0.0,5.0,79,0.00,,,0.00,,2013-07-08 15:53:00,
2013-07-08 12:43:00,83.0,76.0,30.10,SW,216,0.0,4.0,80,0.00,,,0.00,,2013-07-08 16:43:00,
2013-07-08 12:54:00,83.0,74.0,30.09,SSW,210,1.0,5.0,75,0.00,,,0.00,,2013-07-08 16:54:00,
2013-07-08 14:23:00,83.0,75.0,30.08,SW,228,0.0,5.0,78,0.00,,,0.00,,2013-07-08 18:23:00,
2013-07-08 14:50:00,82.0,76.0,30.07,SW,227,0.0,2.0,81,0.00,,,0.00,,2013-07-08 18:50:00,
2013-07-08 14:56:00,82.0,76.0,30.07,SW,227,0.0,1.0,81,0.00,,,0.00,,2013-07-08 18:56:00,
2013-07-08 15:51:00,82.0,76.0,30.04,SSE,164,0.0,2.0,82,0.00,,,0.00,,2013-07-08 19:51:00,
2013-07-08 16:21:00,82.0,76.0,30.03,SSW,201,0.0,2.0,83,0.00,,,0.00,,2013-07-08 20:21:00,
2013-07-08 16:43:00,83.0,77.0,30.02,SSE,167,0.0,3.0,81,0.00,,,0.00,,2013-07-08 20:43:00,
2013-07-08 16:59:00,83.0,75.0,30.02,South,189,1.0,5.0,78,0.00,,,0.00,,2013-07-08 20:59:00,
2013-07-08 17:14:00,84.0,77.0,30.02,South,182,0.0,3.0,79,0.00,,,0.00,,2013-07-08 21:14:00,
2013-07-08 17:51:00,84.0,74.0,30.01,SSW,208,1.0,7.0,73,0.00,,,0.00,,2013-07-08 21:51:00,
2013-07-08 18:22:00,84.0,76.0,30.01,South,191,0.0,5.0,76,0.00,,,0.00,,2013-07-08 22:22:00,
2013-07-08 18:53:00,84.0,76.0,30.00,SSE,164,0.0,4.0,76,0.00,,,0.00,,2013-07-08 22:53:00,
2013-07-08 19:14:00,84.0,76.0,30.00,SSW,210,0.0,5.0,76,0.00,,,0.00,,2013-07-08 23:14:00,
2013-07-08 19:20:00,84.0,76.0,30.00,SSE,153,0.0,5.0,76,0.00,,,0.00,,2013-07-08 23:20:00,
2013-07-08 20:00:00,83.0,75.0,30.00,SSW,211,0.0,3.0,77,0.00,,,0.00,,2013-07-09 00:00:00,
2013-07-08 20:15:00,82.0,75.0,30.01,SSW,208,0.0,3.0,79,0.00,,,0.00,,2013-07-09 00:15:00,
2013-07-08 20:42:00,82.0,76.0,30.01,SSW,206,0.0,1.0,81,0.00,,,0.00,,2013-07-09 00:42:00,
2013-07-08 21:13:00,81.0,75.0,30.01,SSW,206,0.0,2.0,82,0.00,,,0.00,,2013-07-09 01:13:00,
2013-07-08 22:01:00,79.0,74.0,30.02,South,171,0.0,3.0,85,0.00,,,0.00,,2013-07-09 02:01:00,
2013-07-08 22:25:00,-999.0,-99.9,30.02,SSE,163,0.0,1.0,86,0.00,,,0.00,,2013-07-09 02:25:00,
2013-07-08 22:45:00,78.0,74.0,30.03,SSE,163,0.0,1.0,87,0.00,,,0.00,,2013-07-09 02:45:00,